Time;durP1;ratioP1;P1;durP2;ratioP2;P2;SDS_P1;SDS_P2;PMS_P1;PMS_P2;Temp;Humidity;BMP_temperature;BMP_pressure;BME280_temperature;BME280_humidity;BME280_pressure;Samples;Min_cycle;Max_cycle;Signal;HPM_P1;HPM_P2
2022/04/27 00:00:28;;;;;;;13.60;6.20;;;;;;;7.95;100.00;100130.34;5035488;28;20032;-88
2022/04/27 00:02:56;;;;;;;13.73;6.28;;;;;;;7.88;100.00;100163.28;5025754;28;20415;-86
2022/04/27 00:05:25;;;;;;;11.93;6.65;;;;;;;7.83;100.00;100161.91;5044618;28;20108;-87
2022/04/27 00:07:50;;;;;;;21.88;7.30;;;;;;;7.84;100.00;100181.06;5035877;28;20044;-86
2022/04/27 00:10:19;;;;;;;14.07;7.10;;;;;;;7.60;100.00;100161.53;5013615;28;20391;-85
2022/04/27 00:12:45;;;;;;;12.95;6.68;;;;;;;7.71;100.00;100178.81;5023900;28;20075;-85
2022/04/27 00:15:11;;;;;;;17.48;8.43;;;;;;;7.50;100.00;100159.00;5024747;28;20087;-86
2022/04/27 00:17:37;;;;;;;13.63;8.13;;;;;;;7.58;100.00;100177.34;5025484;28;20040;-86
2022/04/27 00:20:05;;;;;;;13.57;8.73;;;;;;;7.65;100.00;100171.53;5025237;28;20034;-86
2022/04/27 00:22:30;;;;;;;15.93;7.90;;;;;;;7.52;100.00;100179.72;5039632;28;20083;-85
2022/04/27 00:25:00;;;;;;;15.50;8.23;;;;;;;7.41;100.00;100170.31;5039841;28;20037;-87
2022/04/27 00:27:29;;;;;;;13.77;8.32;;;;;;;7.40;100.00;100182.56;5023328;28;20025;-88
2022/04/27 00:29:56;;;;;;;14.18;8.05;;;;;;;7.33;100.00;100178.06;5025843;28;20052;-86
2022/04/27 00:32:22;;;;;;;19.65;8.88;;;;;;;7.27;100.00;100176.84;5039641;28;20088;-86
2022/04/27 00:34:47;;;;;;;22.92;10.52;;;;;;;7.17;100.00;100174.28;5029829;28;20430;-86
2022/04/27 00:37:14;;;;;;;22.20;11.98;;;;;;;7.22;100.00;100182.50;5039851;28;20116;-85
2022/04/27 00:39:40;;;;;;;26.20;15.10;;;;;;;7.25;100.00;100187.41;5033964;28;20360;-84
2022/04/27 00:42:22;;;;;;;27.58;15.23;;;;;;;7.28;100.00;100186.31;5010015;28;20036;-86
2022/04/27 00:44:49;;;;;;;31.10;16.05;;;;;;;7.06;100.00;100166.63;5043505;28;20060;-86
2022/04/27 00:47:17;;;;;;;28.10;17.13;;;;;;;7.23;100.00;100168.47;5022617;28;20451;-86
2022/04/27 00:49:56;;;;;;;33.63;16.90;;;;;;;7.12;100.00;100153.81;5012158;28;20017;-84
2022/04/27 00:52:22;;;;;;;25.92;15.90;;;;;;;7.16;100.00;100167.41;5008769;28;20423;-86
2022/04/27 00:54:51;;;;;;;27.38;16.27;;;;;;;7.15;100.00;100158.75;5010290;28;20037;-85
2022/04/27 00:57:16;;;;;;;28.73;15.82;;;;;;;7.08;100.00;100159.47;5011567;28;20029;-86
2022/04/27 00:59:42;;;;;;;25.25;14.90;;;;;;;6.97;100.00;100152.63;5024866;28;20107;-86
2022/04/27 01:02:08;;;;;;;22.63;13.85;;;;;;;6.97;100.00;100161.28;5037507;28;20044;-87
2022/04/27 01:04:35;;;;;;;25.77;13.93;;;;;;;6.96;100.00;100172.69;5024702;28;20033;-86
2022/04/27 01:07:01;;;;;;;26.48;13.20;;;;;;;6.93;100.00;100169.53;5034388;28;20129;-87
2022/04/27 01:09:28;;;;;;;20.48;12.02;;;;;;;6.88;100.00;100177.81;5023578;28;20563;-85
2022/04/27 01:11:56;;;;;;;23.92;11.18;;;;;;;6.81;100.00;100168.91;5034236;28;20041;-88
2022/04/27 01:14:22;;;;;;;22.23;11.02;;;;;;;6.82;100.00;100175.75;5039875;28;20067;-86
2022/04/27 01:16:53;;;;;;;18.20;9.60;;;;;;;6.72;100.00;100165.34;5032256;28;20550;-86
2022/04/27 01:19:19;;;;;;;18.40;9.85;;;;;;;6.60;100.00;100162.09;5036227;28;20116;-88
2022/04/27 01:21:46;;;;;;;18.35;9.05;;;;;;;6.61;100.00;100166.34;5009058;28;20391;-86
2022/04/27 01:24:12;;;;;;;16.27;9.35;;;;;;;6.62;100.00;100167.19;5029997;28;20117;-86
2022/04/27 01:26:38;;;;;;;16.60;8.68;;;;;;;6.52;100.00;100170.59;5022689;28;20117;-83
2022/04/27 01:29:04;;;;;;;17.65;8.85;;;;;;;6.51;100.00;100183.81;5043787;28;20060;-86
2022/04/27 01:31:31;;;;;;;18.42;8.85;;;;;;;6.39;100.00;100177.94;5039230;28;20053;-89
2022/04/27 01:33:56;;;;;;;15.38;8.48;;;;;;;6.43;100.00;100185.31;5022442;28;20025;-86
2022/04/27 01:36:22;;;;;;;17.50;8.60;;;;;;;6.21;100.00;100162.13;5042284;28;20498;-85
2022/04/27 01:38:47;;;;;;;14.00;7.65;;;;;;;6.29;100.00;100170.09;5033670;28;20112;-86
2022/04/27 01:41:13;;;;;;;18.30;7.78;;;;;;;6.26;100.00;100172.97;5025132;28;20368;-87
2022/04/27 01:43:38;;;;;;;19.35;8.23;;;;;;;6.16;100.00;100174.78;5008223;28;20434;-85
2022/04/27 01:46:05;;;;;;;18.33;8.30;;;;;;;6.13;100.00;100170.66;5023052;28;20086;-85
2022/04/27 01:48:31;;;;;;;16.50;7.80;;;;;;;6.04;100.00;100153.22;5034150;28;20056;-85
2022/04/27 01:50:58;;;;;;;16.65;8.05;;;;;;;6.25;100.00;100184.34;5005294;28;20034;-85
2022/04/27 01:56:07;;;;;;;14.45;8.02;;;;;;;6.22;100.00;100174.22;5034542;28;20030;-88
2022/04/27 01:58:33;;;;;;;15.80;7.35;;;;;;;6.37;100.00;100193.69;5033727;28;20654;-87
2022/04/27 02:00:59;;;;;;;16.50;8.02;;;;;;;6.42;100.00;100186.28;5018960;28;20033;-86
2022/04/27 02:03:25;;;;;;;15.65;7.25;;;;;;;6.48;100.00;100178.84;5014721;28;20053;-86
2022/04/27 02:05:52;;;;;;;13.23;7.07;;;;;;;6.55;100.00;100185.16;5033734;28;20036;-86
2022/04/27 02:08:19;;;;;;;18.23;7.55;;;;;;;6.72;100.00;100192.28;5019683;28;20033;-86
2022/04/27 02:10:45;;;;;;;17.25;7.45;;;;;;;6.78;100.00;100177.00;5023158;28;20044;-89
2022/04/27 02:13:11;;;;;;;17.60;6.18;;;;;;;6.76;100.00;100171.13;5005942;28;20564;-85
2022/04/27 02:15:37;;;;;;;13.73;6.68;;;;;;;7.02;100.00;100183.53;5033670;28;20059;-86
2022/04/27 02:18:04;;;;;;;12.43;6.30;;;;;;;7.09;100.00;100187.25;5005584;28;20029;-86
2022/04/27 02:20:29;;;;;;;22.15;6.97;;;;;;;7.08;100.00;100180.38;5007368;28;20052;-84
2022/04/27 02:22:55;;;;;;;17.25;7.38;;;;;;;7.17;100.00;100184.72;5033285;28;20025;-86
2022/04/27 02:25:22;;;;;;;16.10;6.53;;;;;;;7.23;100.00;100191.97;5042008;28;20042;-88
2022/04/27 02:27:49;;;;;;;11.20;6.47;;;;;;;7.15;100.00;100165.75;5038258;28;20472;-88
2022/04/27 02:30:16;;;;;;;13.05;5.80;;;;;;;7.23;100.00;100196.38;5025168;28;20103;-87
2022/04/27 02:32:42;;;;;;;16.30;6.50;;;;;;;7.22;100.00;100187.72;5032858;28;20084;-86
2022/04/27 02:35:08;;;;;;;17.65;6.25;;;;;;;7.18;100.00;100185.56;5038298;28;20041;-86
2022/04/27 02:37:35;;;;;;;12.02;5.80;;;;;;;7.07;100.00;100173.47;5038774;28;20064;-89
2022/04/27 02:40:02;;;;;;;12.48;5.63;;;;;;;7.15;100.00;100197.09;5036780;28;20049;-87
2022/04/27 02:42:28;;;;;;;11.82;5.80;;;;;;;7.13;100.00;100197.22;5023297;28;20036;-88
2022/04/27 02:44:55;;;;;;;11.20;6.03;;;;;;;7.06;100.00;100192.72;5022231;28;20029;-87
2022/04/27 02:47:20;;;;;;;12.85;5.60;;;;;;;7.08;100.00;100185.59;5032785;28;20112;-87
2022/04/27 02:52:39;;;;;;;13.10;5.72;;;;;;;6.91;100.00;100187.97;5040587;28;20456;-87
2022/04/27 02:55:05;;;;;;;10.73;5.40;;;;;;;7.00;100.00;100194.13;5043581;28;20113;-85
2022/04/27 02:57:30;;;;;;;14.60;5.78;;;;;;;7.05;100.00;100202.34;5022978;28;20021;-85
2022/04/27 02:59:56;;;;;;;11.27;5.63;;;;;;;7.06;100.00;100195.31;5004147;28;20076;-86
2022/04/27 03:02:22;;;;;;;16.02;5.05;;;;;;;7.01;100.00;100206.22;5020731;28;20026;-86
2022/04/27 03:04:47;;;;;;;13.93;5.88;;;;;;;6.88;100.00;100201.31;5022967;28;20091;-87
2022/04/27 03:07:13;;;;;;;15.63;5.53;;;;;;;6.91;100.00;100208.84;5031960;28;20021;-85
2022/04/27 03:09:39;;;;;;;9.25;5.60;;;;;;;6.85;100.00;100198.97;5031731;28;20037;-87
2022/04/27 03:12:05;;;;;;;11.23;5.75;;;;;;;6.78;100.00;100200.50;5039069;28;20075;-86
2022/04/27 03:14:32;;;;;;;11.40;6.38;;;;;;;6.84;100.00;100220.81;5007211;28;20073;-87
2022/04/27 03:16:57;;;;;;;11.88;6.03;;;;;;;6.74;100.00;100196.53;5032371;28;20053;-86
2022/04/27 03:19:23;;;;;;;15.50;6.95;;;;;;;6.77;100.00;100217.13;5021785;28;20029;-88
2022/04/27 03:21:50;;;;;;;10.30;5.88;;;;;;;6.50;100.00;100175.16;5032134;28;20033;-85
2022/04/27 03:24:15;;;;;;;12.60;5.57;;;;;;;6.51;100.00;100195.06;5003358;28;20091;-87
2022/04/27 03:26:41;;;;;;;11.93;6.07;;;;;;;6.49;100.00;100214.44;5023174;28;20539;-85
2022/04/27 03:29:07;;;;;;;15.60;6.10;;;;;;;6.25;100.00;100185.19;5022789;28;20029;-87
2022/04/27 03:31:32;;;;;;;13.98;6.35;;;;;;;6.31;100.00;100202.09;5019068;28;20395;-86
2022/04/27 03:33:58;;;;;;;15.38;6.70;;;;;;;6.31;100.00;100209.06;5012837;28;20475;-85
2022/04/27 03:36:24;;;;;;;12.70;6.30;;;;;;;6.20;100.00;100208.25;5020569;28;20055;-85
2022/04/27 03:38:50;;;;;;;12.88;6.03;;;;;;;6.09;100.00;100198.78;5022750;28;20091;-84
2022/04/27 03:41:26;;;;;;;11.52;6.22;;;;;;;6.08;100.00;100198.91;5031808;28;20076;-86
2022/04/27 03:43:52;;;;;;;12.07;5.90;;;;;;;6.02;100.00;100200.28;5022674;28;20033;-85
2022/04/27 03:46:19;;;;;;;12.73;5.78;;;;;;;5.80;100.00;100193.50;5032224;28;20036;-87
2022/04/27 03:48:46;;;;;;;13.13;6.15;;;;;;;6.05;100.00;100205.22;5020301;28;20036;-87
2022/04/27 03:51:12;;;;;;;13.20;5.53;;;;;;;5.87;100.00;100186.78;5020235;28;20123;-87
2022/04/27 03:53:38;;;;;;;15.48;6.15;;;;;;;5.96;100.00;100185.16;5039801;28;20036;-87
2022/04/27 03:56:07;;;;;;;12.85;5.88;;;;;;;6.13;100.00;100201.94;5023436;28;20495;-84
2022/04/27 03:58:33;;;;;;;16.25;6.28;;;;;;;6.02;100.00;100204.69;5022733;28;20033;-88
2022/04/27 04:00:59;;;;;;;16.50;6.35;;;;;;;6.09;100.00;100206.63;5019340;28;20044;-85
2022/04/27 04:03:25;;;;;;;13.05;5.72;;;;;;;6.17;100.00;100197.28;5022146;28;20037;-88
2022/04/27 04:05:50;;;;;;;14.05;5.95;;;;;;;6.15;100.00;100210.44;5005231;28;20030;-86
2022/04/27 04:08:16;;;;;;;12.98;6.30;;;;;;;6.31;100.00;100214.28;5022428;28;20104;-88
2022/04/27 04:10:46;;;;;;;11.07;5.63;;;;;;;6.34;100.00;100212.22;5016236;28;20033;-86
2022/04/27 04:13:12;;;;;;;9.80;5.68;;;;;;;6.43;100.00;100214.00;5020207;28;20071;-86
2022/04/27 04:15:38;;;;;;;10.63;6.03;;;;;;;6.58;100.00;100226.63;5023416;28;20103;-86
2022/04/27 04:18:06;;;;;;;15.30;6.43;;;;;;;6.56;100.00;100218.13;5016382;28;20040;-85
2022/04/27 04:20:31;;;;;;;11.90;7.22;;;;;;;6.53;100.00;100210.56;5005849;28;20041;-87
2022/04/27 04:22:57;;;;;;;13.68;5.57;;;;;;;6.51;100.00;100217.72;5022219;28;20033;-85
2022/04/27 04:30:52;;;;;;;12.75;5.47;;;;;;;6.79;100.00;100229.09;5021433;28;20379;-84
2022/04/27 04:33:18;;;;;;;12.00;6.07;;;;;;;6.79;100.00;100215.19;5031576;28;20116;-86
2022/04/27 04:35:43;;;;;;;14.93;5.80;;;;;;;6.80;100.00;100220.28;5020750;28;20037;-85
2022/04/27 04:38:09;;;;;;;16.40;6.07;;;;;;;6.79;100.00;100234.31;5005572;28;20072;-87
2022/04/27 04:40:35;;;;;;;11.10;5.93;;;;;;;6.90;100.00;100235.94;5021090;28;20441;-86
2022/04/27 04:43:01;;;;;;;14.63;7.28;;;;;;;6.89;100.00;100233.44;5042637;28;20036;-85
2022/04/27 04:45:26;;;;;;;11.00;6.13;;;;;;;6.94;100.00;100224.22;5026297;28;20037;-87
2022/04/27 04:47:52;;;;;;;11.48;6.75;;;;;;;6.93;100.00;100219.97;5026920;28;20037;-86
2022/04/27 04:50:18;;;;;;;14.38;6.25;;;;;;;6.80;100.00;100209.00;5009240;28;20391;-86
2022/04/27 04:52:46;;;;;;;7.78;5.75;;;;;;;7.02;100.00;100241.81;5023202;28;20028;-85
2022/04/27 04:55:13;;;;;;;12.68;6.05;;;;;;;6.94;100.00;100221.63;5024233;28;20025;-86
2022/04/27 04:57:39;;;;;;;14.20;6.32;;;;;;;7.04;100.00;100231.19;5035622;28;20061;-88
2022/04/27 05:00:07;;;;;;;13.30;6.07;;;;;;;7.10;100.00;100246.31;5025995;28;20562;-85
2022/04/27 05:02:33;;;;;;;14.00;6.00;;;;;;;7.22;100.00;100253.00;5024180;28;20120;-86
2022/04/27 05:05:02;;;;;;;14.93;6.32;;;;;;;7.19;100.00;100245.44;5005963;28;20038;-86
2022/04/27 05:07:31;;;;;;;18.95;6.20;;;;;;;7.13;100.00;100239.00;5036501;28;20036;-86
2022/04/27 05:09:57;;;;;;;12.35;6.18;;;;;;;7.24;100.00;100252.88;5034610;28;20026;-85
2022/04/27 05:12:23;;;;;;;13.90;6.25;;;;;;;7.25;100.00;100255.31;5024716;28;20395;-85
2022/04/27 05:14:52;;;;;;;11.93;6.05;;;;;;;7.26;100.00;100259.56;5023534;28;20034;-85
2022/04/27 05:17:18;;;;;;;15.35;6.68;;;;;;;7.48;100.00;100272.44;5019077;28;20108;-86
2022/04/27 05:19:44;;;;;;;16.95;6.43;;;;;;;7.46;100.00;100259.50;5023550;28;20070;-86
2022/04/27 05:22:10;;;;;;;14.13;6.65;;;;;;;7.52;100.00;100263.34;5030368;28;20069;-85
2022/04/27 05:24:36;;;;;;;15.10;6.00;;;;;;;7.45;100.00;100247.41;5020821;28;20021;-85
2022/04/27 05:27:01;;;;;;;15.40;6.82;;;;;;;7.60;100.00;100276.53;5036508;28;20053;-87
2022/04/27 05:32:12;;;;;;;13.77;6.13;;;;;;;7.74;100.00;100290.06;5032672;28;20061;-87
2022/04/27 05:34:39;;;;;;;12.35;5.78;;;;;;;7.10;100.00;100213.19;5012655;28;20029;-88
2022/04/27 05:37:04;;;;;;;11.75;6.30;;;;;;;7.72;100.00;100279.75;5038669;28;20040;-86
2022/04/27 05:39:30;;;;;;;18.98;6.43;;;;;;;7.73;100.00;100281.41;5013621;28;20395;-85
2022/04/27 05:41:56;;;;;;;12.02;6.30;;;;;;;7.86;100.00;100284.53;5041373;28;20033;-85
2022/04/27 05:44:24;;;;;;;14.90;6.60;;;;;;;7.88;100.00;100286.16;5044695;28;20033;-84
2022/04/27 05:46:54;;;;;;;12.57;5.80;;;;;;;8.10;100.00;100296.22;5034527;28;20547;-86
2022/04/27 05:49:20;;;;;;;14.90;6.40;;;;;;;8.14;100.00;100304.56;5024021;28;20025;-84
2022/04/27 05:51:47;;;;;;;17.55;6.85;;;;;;;7.99;100.00;100292.00;5040794;28;20065;-87
2022/04/27 05:54:14;;;;;;;17.30;5.50;;;;;;;8.12;100.00;100299.50;5005028;28;20036;-87
2022/04/27 05:56:40;;;;;;;11.80;6.65;;;;;;;8.14;100.00;100297.56;5025200;28;20117;-86
2022/04/27 05:59:07;;;;;;;18.42;6.85;;;;;;;8.09;100.00;100276.25;5006302;28;20030;-85
2022/04/27 06:01:33;;;;;;;15.32;6.15;;;;;;;8.14;100.00;100292.31;5030282;28;20033;-89
2022/04/27 06:03:59;;;;;;;16.40;6.70;;;;;;;8.21;100.00;100296.97;5013598;28;20040;-89
2022/04/27 06:06:25;;;;;;;12.50;6.63;;;;;;;8.12;100.00;100273.34;5028949;28;20033;-88
2022/04/27 06:08:52;;;;;;;13.80;6.45;;;;;;;8.51;100.00;100308.88;5033056;28;20032;-89
2022/04/27 06:11:19;;;;;;;10.70;5.97;;;;;;;8.42;100.00;100273.94;5012500;28;20060;-89
2022/04/27 06:13:48;;;;;;;12.38;6.07;;;;;;;8.54;100.00;100281.59;5012951;28;20053;-90
2022/04/27 06:16:14;;;;;;;14.20;6.28;;;;;;;8.50;100.00;100285.50;5013511;28;20044;-90
2022/04/27 06:18:41;;;;;;;16.15;5.85;;;;;;;8.60;100.00;100301.94;5029786;28;20029;-89
2022/04/27 06:21:07;;;;;;;15.63;5.60;;;;;;;8.48;100.00;100274.34;5009282;28;20033;-89
2022/04/27 06:23:33;;;;;;;10.55;5.82;;;;;;;8.76;100.00;100295.19;5011984;28;20034;-91
2022/04/27 06:25:59;;;;;;;14.82;6.97;;;;;;;9.03;100.00;100327.47;5015221;28;20025;-89
2022/04/27 06:28:25;;;;;;;11.00;5.72;;;;;;;9.07;100.00;100313.13;5022530;28;20037;-88
2022/04/27 06:30:51;;;;;;;14.20;6.68;;;;;;;8.92;100.00;100324.13;5011810;28;20018;-89
2022/04/27 06:33:18;;;;;;;9.88;5.63;;;;;;;8.51;100.00;100277.50;5029232;28;20503;-89
2022/04/27 06:35:44;;;;;;;10.80;5.95;;;;;;;8.81;100.00;100313.88;5013078;28;20033;-89
2022/04/27 06:38:10;;;;;;;12.93;6.15;;;;;;;9.04;100.00;100323.88;5012999;28;20502;-89
2022/04/27 06:40:35;;;;;;;14.48;6.53;;;;;;;9.15;100.00;100305.31;5013180;28;20119;-90
2022/04/27 06:43:01;;;;;;;15.05;7.25;;;;;;;9.38;100.00;100329.19;5016212;28;20084;-87
2022/04/27 06:45:28;;;;;;;10.55;5.93;;;;;;;9.38;100.00;100330.97;5037952;28;20798;-88
2022/04/27 06:47:59;;;;;;;11.20;5.85;;;;;;;9.49;100.00;100330.72;5025400;28;20068;-87
2022/04/27 06:50:25;;;;;;;17.20;6.40;;;;;;;9.66;100.00;100325.59;5009927;28;20029;-87
2022/04/27 06:52:52;;;;;;;11.05;5.55;;;;;;;9.68;100.00;100323.63;5030670;28;20022;-89
2022/04/27 06:55:18;;;;;;;15.02;6.68;;;;;;;9.63;100.00;100333.72;5035938;28;20037;-89
2022/04/27 06:57:44;;;;;;;16.83;6.38;;;;;;;9.50;98.87;100335.00;5025633;28;20029;-90
2022/04/27 07:00:12;;;;;;;14.27;6.05;;;;;;;9.46;97.92;100323.19;5043880;28;20068;-88
2022/04/27 07:02:38;;;;;;;13.50;5.93;;;;;;;9.58;99.32;100332.41;5020546;28;20030;-89
2022/04/27 07:05:06;;;;;;;14.98;5.53;;;;;;;9.38;98.62;100312.63;5020313;28;20099;-89
2022/04/27 07:07:32;;;;;;;16.33;5.40;;;;;;;9.36;98.00;100330.31;5019893;28;20033;-87
2022/04/27 07:09:59;;;;;;;10.95;5.32;;;;;;;9.33;97.60;100335.88;5032605;28;20029;-86
2022/04/27 07:12:24;;;;;;;13.50;5.57;;;;;;;9.07;98.59;100289.53;5031848;28;20032;-85
2022/04/27 07:14:54;;;;;;;10.20;5.30;;;;;;;9.57;97.68;100341.25;5038710;28;20109;-85
2022/04/27 07:17:20;;;;;;;10.85;5.78;;;;;;;9.36;98.66;100301.50;5016367;28;20539;-86
2022/04/27 07:19:51;;;;;;;11.73;5.60;;;;;;;9.63;97.23;100325.88;5030026;28;20036;-81
2022/04/27 07:22:18;;;;;;;14.18;5.90;;;;;;;9.94;96.65;100341.09;5020154;28;20136;-87
2022/04/27 07:24:44;;;;;;;18.98;6.13;;;;;;;9.90;96.30;100345.03;5021503;28;20109;-87
2022/04/27 07:27:10;;;;;;;13.00;5.40;;;;;;;10.09;94.48;100350.00;5020841;28;20436;-87
2022/04/27 07:29:36;;;;;;;14.85;5.43;;;;;;;9.79;93.30;100339.06;5021193;28;20100;-88
2022/04/27 07:32:03;;;;;;;16.08;6.20;;;;;;;9.98;93.18;100331.94;5035347;28;20113;-89
2022/04/27 07:34:30;;;;;;;11.90;5.65;;;;;;;10.11;92.22;100315.72;5021911;28;20129;-87
2022/04/27 07:36:57;;;;;;;13.38;6.75;;;;;;;10.14;91.77;100331.97;5027297;28;20479;-88
2022/04/27 07:39:24;;;;;;;14.23;6.85;;;;;;;10.35;89.00;100348.28;5022314;28;20072;-90
2022/04/27 07:41:50;;;;;;;12.75;6.78;;;;;;;10.15;88.20;100344.13;5010538;28;20112;-87
2022/04/27 07:44:16;;;;;;;13.05;7.18;;;;;;;10.13;87.23;100335.59;5026554;28;20021;-88
2022/04/27 07:46:47;;;;;;;16.55;6.72;;;;;;;10.24;86.50;100350.22;5040099;28;20032;-89
2022/04/27 07:49:19;;;;;;;19.42;7.65;;;;;;;10.37;86.88;100360.25;5025590;28;20061;-89
2022/04/27 07:51:46;;;;;;;14.38;6.68;;;;;;;10.31;85.55;100347.78;5040357;28;20038;-90
2022/04/27 07:54:12;;;;;;;16.92;6.78;;;;;;;10.42;84.97;100354.56;5005391;28;20036;-87
2022/04/27 07:56:38;;;;;;;15.70;6.38;;;;;;;10.59;85.64;100360.66;5013927;28;20030;-88
2022/04/27 07:59:04;;;;;;;17.33;6.13;;;;;;;10.80;85.69;100368.06;5025438;28;20284;-86
2022/04/27 08:01:31;;;;;;;19.33;6.70;;;;;;;10.76;83.96;100365.94;5005099;28;20452;-89
2022/04/27 08:03:57;;;;;;;12.90;6.70;;;;;;;10.86;84.06;100371.84;5023288;28;20121;-89
2022/04/27 08:06:23;;;;;;;16.58;6.75;;;;;;;10.76;84.00;100365.94;5040851;28;20040;-90
2022/04/27 08:08:49;;;;;;;19.08;6.60;;;;;;;10.60;81.81;100366.75;5023577;28;20029;-88
2022/04/27 08:11:16;;;;;;;13.32;6.10;;;;;;;10.46;82.69;100387.38;5021930;28;20033;-90
2022/04/27 08:13:42;;;;;;;10.18;5.65;;;;;;;10.74;82.69;100375.78;5032421;28;20484;-86
2022/04/27 08:16:12;;;;;;;16.35;6.43;;;;;;;10.73;82.69;100390.72;5023765;28;20364;-86
2022/04/27 08:18:38;;;;;;;18.77;6.03;;;;;;;10.76;83.25;100392.19;5024267;28;20065;-88
2022/04/27 08:21:14;;;;;;;11.75;6.43;;;;;;;10.60;82.67;100375.41;5033641;28;20037;-86
2022/04/27 08:23:41;;;;;;;17.73;7.03;;;;;;;10.52;82.51;100385.91;5007028;28;20037;-88
2022/04/27 08:26:08;;;;;;;15.15;6.80;;;;;;;10.63;82.78;100396.13;5025931;28;20033;-88
2022/04/27 08:28:34;;;;;;;12.40;6.55;;;;;;;10.45;82.77;100379.69;5027290;28;20065;-87
2022/04/27 08:31:00;;;;;;;15.07;6.22;;;;;;;10.75;83.43;100387.91;5029571;28;20045;-86
2022/04/27 08:33:26;;;;;;;9.15;5.68;;;;;;;10.81;83.87;100395.16;5030864;28;20038;-88
2022/04/27 08:35:59;;;;;;;12.35;6.00;;;;;;;10.80;83.62;100389.09;5031324;28;20039;-87
2022/04/27 08:38:26;;;;;;;11.70;7.05;;;;;;;10.71;83.96;100408.47;5009859;28;20442;-87
2022/04/27 08:40:53;;;;;;;20.52;7.07;;;;;;;10.33;85.22;100402.75;5029879;28;20491;-87
2022/04/27 08:43:20;;;;;;;13.38;6.50;;;;;;;10.54;86.34;100408.41;5035270;28;20040;-88
2022/04/27 08:45:46;;;;;;;22.67;7.30;;;;;;;10.47;85.98;100403.97;5026581;28;20033;-88
2022/04/27 08:48:14;;;;;;;14.15;6.82;;;;;;;10.39;86.89;100410.78;5027737;28;20116;-87
2022/04/27 08:50:41;;;;;;;12.38;6.80;;;;;;;10.53;86.78;100403.31;5037346;28;20029;-88
2022/04/27 08:53:07;;;;;;;12.48;6.18;;;;;;;10.48;86.54;100405.59;5022942;28;20032;-87
2022/04/27 08:55:36;;;;;;;13.40;6.28;;;;;;;10.54;85.37;100410.19;5041338;28;20057;-88
2022/04/27 08:58:08;;;;;;;13.98;6.28;;;;;;;10.61;84.66;100405.97;5018560;28;20025;-88
2022/04/27 09:00:34;;;;;;;68.57;40.13;;;;;;;10.60;83.29;100406.13;5042954;28;20049;-88
2022/04/27 09:03:22;;;;;;;86.75;49.67;;;;;;;10.61;83.11;100413.84;5018551;28;20364;-89
2022/04/27 09:06:03;;;;;;;37.00;19.20;;;;;;;10.63;82.52;100401.38;5025125;28;20119;-86
2022/04/27 09:08:55;;;;;;;24.63;15.93;;;;;;;10.87;83.27;100412.91;5045100;28;20096;-88
2022/04/27 09:11:28;;;;;;;21.17;9.82;;;;;;;10.78;83.32;100414.69;5025221;28;20128;-85
2022/04/27 09:13:59;;;;;;;15.02;7.93;;;;;;;10.81;83.30;100403.06;5010874;28;20049;-87
2022/04/27 09:20:46;;;;;;;17.98;7.32;;;;;;;11.04;82.30;100405.03;5043403;28;20120;-88
2022/04/27 09:22:04;;;;;;;38.63;25.73;;;;;;;11.14;80.08;100401.25;5035595;28;20419;-87
2022/04/27 09:24:46;;;;;;;48.10;35.28;;;;;;;11.29;79.21;100401.41;5020047;28;20595;-88
2022/04/27 09:27:17;;;;;;;13.15;7.47;;;;;;;11.58;79.16;100422.91;5041260;28;20395;-87
2022/04/27 09:29:43;;;;;;;8.80;5.90;;;;;;;11.74;78.72;100411.53;5034904;28;20056;-86
2022/04/27 09:32:15;;;;;;;13.05;7.38;;;;;;;11.70;78.17;100426.84;5024028;28;20036;-87
2022/04/27 09:34:46;;;;;;;18.05;6.60;;;;;;;11.73;77.82;100417.78;5020920;28;20148;-87
2022/04/27 09:37:24;;;;;;;11.98;5.70;;;;;;;11.99;77.92;100429.91;5007448;28;20029;-87
2022/04/27 09:40:13;;;;;;;22.42;12.07;;;;;;;11.91;76.63;100422.84;5025463;28;20025;-89
2022/04/27 09:42:46;;;;;;;19.73;6.82;;;;;;;11.77;77.27;100437.50;5013993;28;20037;-90
2022/04/27 09:45:25;;;;;;;14.57;6.45;;;;;;;11.53;77.23;100389.22;5054590;28;20132;-90
2022/04/27 09:48:03;;;;;;;16.85;6.90;;;;;;;12.01;77.43;100412.16;5036180;28;20542;-83
2022/04/27 09:50:47;;;;;;;12.23;8.52;;;;;;;12.00;76.72;100410.47;5033155;28;20022;-85
2022/04/27 09:53:15;;;;;;;11.98;6.90;;;;;;;12.49;77.25;100425.28;5037032;28;20029;-86
2022/04/27 09:55:54;;;;;;;18.60;7.30;;;;;;;12.46;75.88;100420.31;5010431;28;20032;-86
2022/04/27 09:58:24;;;;;;;15.63;6.60;;;;;;;12.45;74.72;100410.78;5030150;28;20486;-87
2022/04/27 10:00:56;;;;;;;12.93;7.05;;;;;;;12.64;75.03;100396.38;5033752;28;20060;-86
2022/04/27 10:03:27;;;;;;;12.15;7.93;;;;;;;12.10;74.25;100342.69;5035739;28;20495;-86
2022/04/27 10:05:53;;;;;;;19.48;16.27;;;;;;;12.68;73.81;100391.59;5039555;28;20102;-84
2022/04/27 10:08:23;;;;;;;12.93;6.97;;;;;;;13.11;74.79;100422.72;5024847;28;20029;-85
2022/04/27 10:10:49;;;;;;;12.00;6.60;;;;;;;13.09;73.90;100403.63;5006127;28;20056;-84
2022/04/27 10:13:15;;;;;;;9.45;6.90;;;;;;;13.56;71.96;100428.13;5013308;28;20140;-84
2022/04/27 10:15:46;;;;;;;10.73;7.03;;;;;;;13.61;70.34;100428.41;5003596;28;20440;-85
2022/04/27 10:18:15;;;;;;;21.60;13.05;;;;;;;13.43;71.15;100423.47;4999763;28;20041;-84
2022/04/27 10:20:49;;;;;;;10.55;7.15;;;;;;;13.38;71.21;100407.34;4996269;28;20844;-86
2022/04/27 10:23:28;;;;;;;10.38;6.70;;;;;;;13.70;71.08;100415.94;5001445;28;20481;-85
2022/04/27 10:26:28;;;;;;;14.13;9.48;;;;;;;13.60;70.26;100428.59;5013049;28;20476;-88
2022/04/27 10:28:59;;;;;;;25.38;16.15;;;;;;;13.43;70.56;100408.47;5024182;28;20112;-91
2022/04/27 10:31:40;;;;;;;22.92;11.40;;;;;;;13.75;71.17;100424.13;5000510;28;20108;-91
2022/04/27 10:34:26;;;;;;;9.05;6.85;;;;;;;13.79;70.95;100417.53;4991349;28;20061;-91
2022/04/27 10:36:54;;;;;;;11.50;7.28;;;;;;;13.79;70.54;100387.66;5008139;28;20049;-90
2022/04/27 10:39:27;;;;;;;10.77;7.13;;;;;;;13.92;70.76;100401.03;5010482;28;20033;-90
2022/04/27 10:42:18;;;;;;;15.60;9.40;;;;;;;13.81;69.33;100422.59;4995551;28;20033;-90
2022/04/27 10:44:47;;;;;;;12.98;8.60;;;;;;;13.88;70.93;100435.91;5004437;28;20064;-90
2022/04/27 10:47:21;;;;;;;10.98;7.95;;;;;;;13.89;71.40;100405.84;4982724;28;20749;-89
2022/04/27 10:49:50;;;;;;;23.15;13.18;;;;;;;13.84;68.01;100401.94;5004016;28;20035;-90
2022/04/27 10:52:22;;;;;;;23.40;13.55;;;;;;;13.46;69.04;100425.75;5004496;28;20037;-90
2022/04/27 10:54:48;;;;;;;17.77;9.77;;;;;;;13.40;70.92;100418.53;5003627;28;20029;-90
2022/04/27 10:57:14;;;;;;;23.90;13.52;;;;;;;13.16;70.32;100419.56;5008880;28;20053;-90
2022/04/27 10:59:45;;;;;;;15.40;10.23;;;;;;;13.34;70.89;100414.78;5001711;28;20034;-90
2022/04/27 11:02:35;;;;;;;13.63;7.72;;;;;;;13.60;72.20;100436.53;4991941;28;20033;-89
2022/04/27 11:05:03;;;;;;;22.02;12.15;;;;;;;13.39;71.05;100422.16;5021072;28;20469;-91
2022/04/27 11:07:29;;;;;;;11.68;7.93;;;;;;;13.55;73.43;100435.22;5004365;28;20542;-90
2022/04/27 11:09:55;;;;;;;16.40;7.68;;;;;;;13.60;71.71;100432.03;5008777;28;20030;-90
2022/04/27 11:12:24;;;;;;;13.88;7.97;;;;;;;13.57;71.82;100435.88;4990469;28;20101;-91
2022/04/27 11:14:59;;;;;;;12.80;8.18;;;;;;;13.73;71.59;100439.34;5026741;28;20037;-90
2022/04/27 11:17:28;;;;;;;12.63;7.53;;;;;;;13.61;72.08;100401.22;5035700;28;20128;-91
2022/04/27 11:19:54;;;;;;;14.40;7.43;;;;;;;13.75;72.41;100405.66;5034369;28;20138;-90
2022/04/27 11:22:21;;;;;;;12.40;7.22;;;;;;;13.64;73.05;100354.16;5026442;28;20475;-89
2022/04/27 11:24:53;;;;;;;11.38;8.02;;;;;;;13.39;71.02;100366.78;5029783;28;20083;-89
2022/04/27 11:27:29;;;;;;;15.68;8.82;;;;;;;13.60;72.29;100404.84;5037851;28;20041;-89
2022/04/27 11:29:56;;;;;;;13.98;8.40;;;;;;;13.76;70.78;100431.09;5012090;28;20029;-90
2022/04/27 11:32:22;;;;;;;21.55;15.10;;;;;;;13.72;70.42;100432.41;5043413;28;20068;-91
2022/04/27 11:34:49;;;;;;;17.40;11.40;;;;;;;13.21;71.53;100375.84;5035900;28;20029;-89
2022/04/27 11:37:19;;;;;;;19.73;11.30;;;;;;;13.21;71.85;100443.56;5044454;28;20022;-91